createdAt,value
2019-05-22T00:01:43.175Z,82.21
2019-05-22T00:04:14.982Z,82.16
2019-05-22T00:06:48.005Z,81.76
2019-05-22T00:09:21.597Z,82.05
2019-05-22T00:11:52.120Z,82.06
2019-05-22T00:14:21.282Z,82.00
2019-05-22T00:16:50.209Z,81.88
2019-05-22T00:19:20.583Z,81.90
2019-05-22T00:21:51.596Z,81.96
2019-05-22T00:24:22.150Z,81.94
2019-05-22T00:26:51.488Z,82.09
2019-05-22T00:29:22.167Z,82.29
2019-05-22T00:31:51.016Z,81.72
2019-05-22T00:34:21.178Z,81.92
2019-05-22T00:36:50.304Z,82.23
2019-05-22T00:39:21.249Z,81.99
2019-05-22T00:41:51.897Z,81.86
2019-05-22T00:44:22.349Z,81.75
2019-05-22T00:46:52.983Z,81.68
2019-05-22T00:49:22.666Z,81.82
2019-05-22T00:55:44.099Z,81.62
2019-05-22T00:58:20.910Z,81.36
2019-05-22T01:00:54.262Z,81.31
2019-05-22T01:03:24.932Z,81.00
2019-05-22T01:05:54.979Z,80.76
2019-05-22T01:08:26.028Z,80.80
2019-05-22T01:11:15.208Z,81.28
2019-05-22T01:13:44.285Z,81.06
2019-05-22T01:16:16.115Z,81.14
2019-05-22T01:18:45.384Z,81.55
2019-05-22T01:21:16.210Z,80.92
2019-05-22T01:23:45.987Z,80.97
2019-05-22T01:26:16.997Z,81.12
2019-05-22T01:28:47.360Z,81.19
2019-05-22T01:31:17.708Z,81.08
2019-05-22T01:33:48.103Z,81.19
2019-05-22T01:36:20.696Z,80.95
2019-05-22T01:38:49.495Z,80.76
2019-05-22T01:41:28.017Z,80.80
2019-05-22T01:43:59.658Z,80.83
2019-05-22T01:46:30.860Z,80.47
2019-05-22T01:49:03.338Z,80.71
2019-05-22T01:51:32.712Z,80.83
2019-05-22T01:54:02.764Z,81.02
2019-05-22T01:56:34.217Z,80.91
2019-05-22T01:59:04.624Z,81.01
2019-05-22T02:01:33.549Z,81.00
2019-05-22T02:04:02.342Z,80.76
2019-05-22T02:06:31.403Z,80.99
2019-05-22T02:09:33.852Z,80.88
2019-05-22T02:12:15.702Z,81.01
2019-05-22T02:14:48.354Z,80.28
2019-05-22T02:17:20.065Z,80.14
2019-05-22T02:19:49.115Z,80.22
2019-05-22T02:22:19.400Z,80.70
2019-05-22T02:24:50.268Z,80.64
2019-05-22T02:27:19.852Z,80.47
2019-05-22T02:29:49.320Z,80.20
2019-05-22T02:32:21.385Z,80.60
2019-05-22T02:34:50.307Z,80.67
2019-05-22T02:37:20.700Z,80.58
2019-05-22T02:39:50.471Z,80.30
2019-05-22T02:42:25.986Z,80.47
2019-05-22T02:44:55.630Z,80.56
2019-05-22T02:47:25.290Z,80.85
2019-05-22T02:49:56.050Z,80.40
2019-05-22T02:52:26.350Z,80.54
2019-05-22T02:54:55.582Z,80.29
2019-05-22T02:57:24.647Z,80.30
2019-05-22T02:59:53.690Z,80.41
2019-05-22T03:02:23.761Z,80.58
2019-05-22T03:04:59.161Z,80.08
2019-05-22T03:07:28.811Z,80.56
2019-05-22T03:09:57.883Z,80.15
2019-05-22T03:12:28.749Z,80.35
2019-05-22T03:14:58.130Z,80.68
2019-05-22T03:17:30.830Z,80.30
2019-05-22T03:20:03.770Z,80.58
2019-05-22T03:23:09.839Z,80.59
2019-05-22T03:25:39.187Z,80.29
2019-05-22T03:28:08.185Z,80.63
2019-05-22T03:30:40.063Z,80.72
2019-05-22T03:33:09.982Z,80.87
2019-05-22T03:35:46.038Z,80.70
2019-05-22T03:38:16.333Z,80.80
2019-05-22T03:41:00.904Z,80.67
2019-05-22T03:43:32.335Z,80.45
2019-05-22T03:46:05.592Z,80.48
2019-05-22T03:48:36.465Z,80.10
2019-05-22T03:51:14.288Z,80.25
2019-05-22T03:53:43.965Z,80.15
2019-05-22T03:56:13.457Z,80.28
2019-05-22T03:58:42.160Z,80.10
2019-05-22T04:01:11.643Z,80.54
2019-05-22T04:03:40.417Z,80.46
2019-05-22T04:06:13.102Z,80.31
2019-05-22T04:08:42.376Z,80.53
2019-05-22T04:11:13.193Z,80.54
2019-05-22T04:13:42.099Z,79.89
2019-05-22T04:16:12.907Z,80.19
2019-05-22T04:18:41.894Z,80.05
2019-05-22T04:21:12.207Z,80.49
2019-05-22T04:23:41.272Z,79.85
2019-05-22T04:26:11.617Z,80.21
2019-05-22T04:28:49.029Z,80.57
2019-05-22T04:31:19.779Z,80.39
2019-05-22T04:33:48.628Z,80.76
2019-05-22T04:36:18.455Z,80.29
2019-05-22T04:38:47.327Z,80.52
2019-05-22T04:41:16.694Z,80.22
2019-05-22T04:43:45.832Z,80.20
2019-05-22T04:46:14.643Z,80.17
2019-05-22T04:48:46.199Z,80.76
2019-05-22T04:51:26.179Z,80.55
2019-05-22T04:53:56.666Z,81.01
2019-05-22T04:56:26.141Z,80.80
2019-05-22T04:58:56.188Z,80.53
2019-05-22T05:01:26.208Z,80.05
2019-05-22T05:03:55.219Z,80.29
2019-05-22T05:06:24.040Z,80.02
2019-05-22T05:08:53.003Z,80.22
2019-05-22T05:11:21.767Z,80.04
2019-05-22T05:13:50.473Z,79.84
2019-05-22T05:16:19.213Z,79.99
2019-05-22T05:18:47.967Z,80.16
2019-05-22T05:21:16.754Z,79.79
2019-05-22T05:23:45.508Z,79.89
2019-05-22T05:26:14.643Z,80.14
2019-05-22T05:28:45.334Z,79.81
2019-05-22T05:31:14.445Z,79.69
2019-05-22T05:34:04.278Z,79.90
2019-05-22T05:36:33.173Z,79.96
2019-05-22T05:39:03.526Z,79.83
2019-05-22T05:41:32.428Z,79.20
2019-05-22T05:44:01.398Z,79.27
2019-05-22T05:46:30.352Z,79.47
2019-05-22T05:48:59.790Z,79.33
2019-05-22T05:51:31.278Z,79.01
2019-05-22T05:54:06.534Z,79.49
2019-05-22T05:56:37.642Z,79.46
2019-05-22T05:59:07.667Z,79.68
2019-05-22T06:01:41.403Z,79.63
2019-05-22T06:04:12.015Z,80.01
2019-05-22T06:06:43.647Z,79.84
2019-05-22T06:09:15.265Z,80.23
2019-05-22T06:11:50.869Z,79.75
2019-05-22T06:14:28.687Z,79.34
2019-05-22T06:17:07.941Z,79.34
2019-05-22T06:19:42.517Z,79.05
2019-05-22T06:22:11.679Z,78.87
2019-05-22T06:24:52.332Z,79.25
2019-05-22T06:27:25.687Z,79.31
2019-05-22T06:30:04.584Z,78.76
2019-05-22T06:32:55.518Z,79.09
2019-05-22T06:35:26.871Z,79.28
2019-05-22T06:37:58.566Z,78.86
2019-05-22T06:40:29.686Z,79.04
2019-05-22T06:43:20.889Z,78.93
2019-05-22T06:45:49.595Z,78.86
2019-05-22T06:48:18.327Z,78.88
2019-05-22T06:50:49.243Z,79.07
2019-05-22T06:53:17.696Z,78.99
2019-05-22T06:55:46.456Z,79.22
2019-05-22T06:58:15.380Z,79.52
2019-05-22T07:00:44.607Z,79.27
2019-05-22T07:03:13.494Z,79.20
2019-05-22T07:05:43.227Z,79.01
2019-05-22T07:08:13.231Z,79.36
2019-05-22T07:10:43.285Z,79.42
2019-05-22T07:13:13.703Z,78.97
2019-05-22T07:15:44.095Z,78.88
2019-05-22T07:18:14.804Z,78.62
2019-05-22T07:20:45.049Z,78.19
2019-05-22T07:23:15.392Z,78.35
2019-05-22T07:25:46.429Z,78.66
2019-05-22T07:28:18.331Z,78.54
2019-05-22T07:30:48.151Z,79.02
2019-05-22T07:33:18.009Z,78.62
2019-05-22T07:36:07.953Z,78.70
2019-05-22T07:38:19.569Z,78.65
2019-05-22T07:40:50.905Z,79.05
2019-05-22T07:43:21.190Z,78.96
2019-05-22T07:45:50.936Z,79.02
2019-05-22T07:48:22.471Z,77.51
2019-05-22T07:50:53.182Z,77.79
2019-05-22T07:53:23.424Z,77.70
2019-05-22T07:55:53.895Z,77.46
2019-05-22T07:58:24.394Z,77.67
2019-05-22T08:00:55.966Z,78.11
2019-05-22T08:03:25.195Z,77.58
2019-05-22T08:05:56.311Z,77.60
2019-05-22T08:08:27.920Z,78.01
2019-05-22T08:10:58.126Z,77.97
2019-05-22T08:13:27.840Z,78.19
2019-05-22T08:15:58.996Z,77.75
2019-05-22T08:18:30.386Z,77.74
2019-05-22T08:20:59.244Z,77.60
2019-05-22T08:23:28.393Z,77.63
2019-05-22T08:25:59.588Z,77.49
2019-05-22T08:28:30.602Z,78.05
2019-05-22T08:31:00.793Z,77.70
2019-05-22T08:33:29.656Z,77.89
2019-05-22T08:35:59.227Z,77.73
2019-05-22T08:38:30.197Z,77.82
2019-05-22T08:41:01.286Z,77.82
2019-05-22T08:43:31.236Z,77.54
2019-05-22T08:46:00.651Z,76.94
2019-05-22T08:48:30.547Z,77.26
2019-05-22T08:51:00.337Z,76.22
2019-05-22T08:53:46.086Z,76.55
2019-05-22T08:56:01.577Z,76.45
2019-05-22T08:58:31.682Z,76.48
2019-05-22T09:01:00.582Z,75.87
2019-05-22T09:03:29.536Z,75.98
2019-05-22T09:05:58.264Z,75.43
2019-05-22T09:08:26.954Z,75.65
2019-05-22T09:10:55.738Z,76.02
2019-05-22T09:13:24.470Z,75.97
2019-05-22T09:15:53.912Z,75.65
2019-05-22T09:18:22.874Z,75.80
2019-05-22T09:20:53.406Z,75.78
2019-05-22T09:23:22.478Z,75.18
2019-05-22T09:25:51.429Z,74.89
2019-05-22T09:28:20.511Z,75.16
2019-05-22T09:30:49.195Z,75.30
2019-05-22T09:33:19.590Z,75.62
2019-05-22T09:35:49.246Z,75.05
2019-05-22T09:38:17.962Z,74.89
2019-05-22T09:40:47.023Z,73.78
2019-05-22T09:43:15.817Z,73.31
2019-05-22T09:45:44.605Z,73.40
2019-05-22T09:48:13.606Z,73.37
2019-05-22T09:50:42.453Z,73.43
2019-05-22T09:53:11.549Z,73.93
2019-05-22T09:55:40.239Z,73.70
2019-05-22T09:58:09.235Z,73.96
2019-05-22T10:00:39.399Z,73.49
2019-05-22T10:03:08.826Z,72.47
2019-05-22T10:05:37.737Z,73.07
2019-05-22T10:08:06.747Z,72.71
2019-05-22T10:10:36.017Z,72.32
2019-05-22T10:13:05.890Z,72.53
2019-05-22T10:15:34.612Z,73.47
2019-05-22T10:18:03.591Z,72.93
2019-05-22T10:20:32.857Z,72.93
2019-05-22T10:23:14.911Z,73.49
2019-05-22T10:25:32.941Z,73.08
2019-05-22T10:28:01.678Z,72.23
2019-05-22T10:30:31.492Z,71.58
2019-05-22T10:33:00.302Z,70.71
2019-05-22T10:35:31.159Z,70.81
2019-05-22T10:38:00.034Z,71.86
2019-05-22T10:40:29.142Z,71.66
2019-05-22T10:42:57.910Z,70.95
2019-05-22T10:45:27.688Z,71.50
2019-05-22T10:47:57.108Z,71.55
2019-05-22T10:50:26.247Z,71.69
2019-05-22T10:52:55.950Z,70.81
2019-05-22T10:55:25.987Z,70.14
2019-05-22T10:57:54.750Z,69.38
2019-05-22T11:00:24.495Z,69.12
2019-05-22T11:02:53.365Z,69.12
2019-05-22T11:05:22.938Z,69.83
2019-05-22T11:07:52.451Z,69.94
2019-05-22T11:10:24.471Z,69.99
2019-05-22T11:12:53.769Z,69.78
2019-05-22T11:15:23.777Z,69.64
2019-05-22T11:17:53.782Z,69.55
2019-05-22T11:20:23.819Z,69.26
2019-05-22T11:22:53.301Z,69.15
2019-05-22T11:25:22.540Z,69.15
2019-05-22T11:27:52.863Z,67.84
2019-05-22T11:30:24.568Z,67.84
2019-05-22T11:32:53.950Z,67.18
2019-05-22T11:35:23.110Z,67.83
2019-05-22T11:37:52.103Z,67.90
2019-05-22T11:40:31.985Z,67.04
2019-05-22T11:43:00.730Z,66.96
2019-05-22T11:45:29.922Z,66.96
2019-05-22T11:47:58.849Z,65.94
2019-05-22T11:50:27.934Z,66.23
2019-05-22T11:52:56.940Z,66.15
2019-05-22T11:55:42.866Z,65.83
2019-05-22T11:57:56.406Z,64.46
2019-05-22T12:00:25.184Z,64.53
2019-05-22T12:02:54.803Z,65.00
2019-05-22T12:05:24.068Z,64.99
2019-05-22T12:07:52.804Z,65.33
2019-05-22T12:10:23.834Z,65.78
2019-05-22T12:12:54.031Z,63.97
2019-05-22T12:15:26.448Z,64.86
2019-05-22T12:17:55.747Z,64.74
2019-05-22T12:20:26.304Z,63.71
2019-05-22T12:22:55.797Z,63.25
2019-05-22T12:25:25.650Z,64.40
2019-05-22T12:27:55.140Z,64.00
2019-05-22T12:30:24.622Z,62.74
2019-05-22T12:32:54.394Z,63.16
2019-05-22T12:35:24.045Z,62.84
2019-05-22T12:37:53.044Z,62.42
2019-05-22T12:40:22.125Z,63.09
2019-05-22T12:42:52.636Z,63.24
2019-05-22T12:45:26.827Z,62.72
2019-05-22T12:47:55.902Z,60.99
2019-05-22T12:50:29.195Z,62.21
2019-05-22T12:52:59.597Z,61.96
2019-05-22T12:55:28.539Z,62.32
2019-05-22T12:57:57.725Z,61.85
2019-05-22T13:00:27.419Z,62.07
2019-05-22T13:02:58.890Z,62.04
2019-05-22T13:05:28.538Z,61.68
2019-05-22T13:07:58.605Z,59.43
2019-05-22T13:10:28.161Z,59.95
2019-05-22T13:12:57.482Z,61.00
2019-05-22T13:15:26.568Z,60.58
2019-05-22T13:17:55.826Z,60.91
2019-05-22T13:20:41.748Z,61.00
2019-05-22T13:22:58.830Z,61.29
2019-05-22T13:25:34.129Z,60.55
2019-05-22T13:28:05.594Z,59.82
2019-05-22T13:30:36.255Z,59.75
2019-05-22T13:33:06.031Z,59.74
2019-05-22T13:35:36.486Z,60.13
2019-05-22T13:38:06.128Z,60.53
2019-05-22T13:40:36.590Z,60.73
2019-05-22T13:43:05.417Z,61.62
2019-05-22T13:45:35.508Z,61.37
2019-05-22T13:48:04.575Z,60.84
2019-05-22T13:50:33.816Z,60.72
2019-05-22T13:53:04.672Z,60.47
2019-05-22T13:55:33.814Z,60.58
2019-05-22T13:58:03.465Z,60.09
2019-05-22T14:00:33.844Z,59.67
2019-05-22T14:03:02.874Z,58.99
2019-05-22T14:05:33.443Z,58.77
2019-05-22T14:08:05.469Z,58.75
2019-05-22T14:10:35.012Z,60.21
2019-05-22T14:13:04.119Z,59.56
2019-05-22T14:15:49.949Z,60.08
2019-05-22T14:18:05.830Z,59.02
2019-05-22T14:20:34.762Z,59.88
2019-05-22T14:23:03.538Z,59.34
2019-05-22T14:25:34.083Z,59.58
2019-05-22T14:28:03.273Z,59.68
2019-05-22T14:30:32.530Z,57.39
2019-05-22T14:33:04.869Z,56.70
2019-05-22T14:35:47.635Z,57.13
2019-05-22T14:38:06.269Z,56.10
2019-05-22T14:40:36.720Z,57.39
2019-05-22T14:43:05.510Z,54.82
2019-05-22T14:45:34.665Z,54.79
2019-05-22T14:48:03.878Z,55.58
2019-05-22T14:50:33.300Z,55.61
2019-05-22T14:53:02.455Z,54.00
2019-05-22T14:55:33.847Z,53.18
2019-05-22T14:58:05.525Z,54.30
2019-05-22T15:00:35.354Z,54.44
2019-05-22T15:03:04.634Z,53.64
2019-05-22T15:05:34.126Z,54.05
2019-05-22T15:08:06.069Z,53.94
2019-05-22T15:10:36.098Z,53.26
2019-05-22T15:13:06.258Z,53.51
2019-05-22T15:15:40.356Z,54.13
2019-05-22T15:18:07.504Z,53.99
2019-05-22T15:20:53.700Z,53.97
2019-05-22T15:23:22.895Z,55.37
2019-05-22T15:25:51.947Z,54.54
2019-05-22T15:28:21.536Z,55.52
2019-05-22T15:30:51.275Z,55.40
2019-05-22T15:33:20.000Z,54.88
2019-05-22T15:35:49.082Z,55.31
2019-05-22T15:38:19.311Z,55.90
2019-05-22T15:40:48.218Z,56.04
2019-05-22T15:43:17.215Z,56.03
2019-05-22T15:45:46.973Z,56.39
2019-05-22T15:48:19.502Z,55.10
2019-05-22T15:50:49.856Z,56.23
2019-05-22T15:53:20.840Z,56.14
2019-05-22T15:55:51.273Z,55.86
2019-05-22T15:58:20.679Z,54.83
2019-05-22T16:00:50.901Z,55.66
2019-05-22T16:03:22.604Z,55.16
2019-05-22T16:05:54.180Z,56.25
2019-05-22T16:08:23.853Z,55.81
2019-05-22T16:10:58.924Z,54.42
2019-05-22T16:13:24.925Z,54.71
2019-05-22T16:15:55.839Z,55.37
2019-05-22T16:18:29.674Z,54.79
2019-05-22T16:21:02.276Z,55.77
2019-05-22T16:23:33.476Z,56.43
2019-05-22T16:26:05.003Z,56.13
2019-05-22T16:28:36.975Z,57.05
2019-05-22T16:31:09.089Z,56.05
2019-05-22T16:33:41.028Z,56.35
2019-05-22T16:36:11.193Z,56.54
2019-05-22T16:38:41.270Z,57.67
2019-05-22T16:41:10.979Z,56.70
2019-05-22T16:43:49.313Z,56.50
2019-05-22T16:46:15.990Z,56.52
2019-05-22T16:48:46.734Z,57.39
2019-05-22T16:51:17.786Z,57.12
2019-05-22T16:53:53.373Z,57.54
2019-05-22T16:56:23.561Z,57.53
2019-05-22T16:58:52.705Z,57.85
2019-05-22T17:01:24.400Z,57.36
2019-05-22T17:03:55.956Z,57.47
2019-05-22T17:06:26.277Z,56.91
2019-05-22T17:08:57.938Z,57.16
2019-05-22T17:11:27.925Z,57.53
2019-05-22T17:14:00.992Z,57.08
2019-05-22T17:16:32.335Z,57.23
2019-05-22T17:19:01.551Z,58.44
2019-05-22T17:21:30.461Z,58.78
2019-05-22T17:24:00.326Z,58.39
2019-05-22T17:26:30.959Z,58.39
2019-05-22T17:28:59.743Z,59.07
2019-05-22T17:31:29.766Z,58.80
2019-05-22T17:33:59.514Z,58.65
2019-05-22T17:36:29.110Z,59.25
2019-05-22T17:38:57.990Z,59.47
2019-05-22T17:41:30.546Z,60.04
2019-05-22T17:44:01.698Z,59.82
2019-05-22T17:46:32.376Z,60.54
2019-05-22T17:49:02.365Z,60.47
2019-05-22T17:51:32.103Z,60.41
2019-05-22T17:54:01.210Z,60.69
2019-05-22T17:56:30.104Z,60.98
2019-05-22T17:58:58.920Z,61.46
2019-05-22T18:01:27.814Z,61.26
2019-05-22T18:03:56.599Z,61.58
2019-05-22T18:06:25.323Z,61.70
2019-05-22T18:08:54.619Z,62.09
2019-05-22T18:11:23.622Z,62.33
2019-05-22T18:13:59.373Z,62.31
2019-05-22T18:16:28.455Z,62.21
2019-05-22T18:18:57.963Z,62.64
2019-05-22T18:21:27.288Z,62.87
2019-05-22T18:23:57.818Z,62.93
2019-05-22T18:26:26.952Z,62.66
2019-05-22T18:28:55.975Z,62.99
2019-05-22T18:31:25.137Z,64.12
2019-05-22T18:33:53.860Z,63.73
2019-05-22T18:36:22.655Z,64.12
2019-05-22T18:38:51.347Z,64.60
2019-05-22T18:41:21.703Z,65.09
2019-05-22T18:43:50.749Z,65.47
2019-05-22T18:46:19.683Z,65.20
2019-05-22T18:48:48.611Z,65.22
2019-05-22T18:51:17.586Z,65.20
2019-05-22T18:53:46.347Z,65.11
2019-05-22T18:56:15.255Z,65.39
2019-05-22T18:58:45.363Z,65.78
2019-05-22T19:01:16.345Z,65.59
2019-05-22T19:03:44.919Z,66.08
2019-05-22T19:06:13.705Z,66.31
2019-05-22T19:08:42.406Z,66.04
2019-05-22T19:11:11.181Z,66.55
2019-05-22T19:13:39.851Z,66.68
2019-05-22T19:16:08.646Z,66.78
2019-05-22T19:18:37.647Z,67.18
2019-05-22T19:21:06.564Z,67.06
2019-05-22T19:23:35.380Z,67.19
2019-05-22T19:26:05.841Z,67.19
2019-05-22T19:28:43.490Z,67.51
2019-05-22T19:31:06.029Z,68.07
2019-05-22T19:33:34.822Z,68.36
2019-05-22T19:36:04.791Z,68.28
2019-05-22T19:38:33.694Z,68.27
2019-05-22T19:41:02.759Z,68.35
2019-05-22T19:43:31.647Z,68.56
2019-05-22T19:46:00.339Z,68.80
2019-05-22T19:48:29.034Z,69.14
2019-05-22T19:50:58.084Z,69.25
2019-05-22T19:53:28.459Z,69.35
2019-05-22T19:55:57.548Z,69.48
2019-05-22T19:58:27.080Z,69.64
2019-05-22T20:00:55.922Z,69.89
2019-05-22T20:03:25.740Z,70.03
2019-05-22T20:05:55.323Z,70.12
2019-05-22T20:08:24.296Z,70.31
2019-05-22T20:10:53.114Z,70.43
2019-05-22T20:13:24.842Z,70.48
2019-05-22T20:15:55.210Z,70.49
2019-05-22T20:18:24.299Z,70.65
2019-05-22T20:20:53.564Z,70.83
2019-05-22T20:23:35.214Z,71.00
2019-05-22T20:25:53.323Z,71.25
2019-05-22T20:28:22.152Z,71.56
2019-05-22T20:30:51.481Z,71.48
2019-05-22T20:33:20.508Z,71.61
2019-05-22T20:35:49.275Z,71.66
2019-05-22T20:38:18.693Z,71.72
2019-05-22T20:40:47.680Z,71.86
2019-05-22T20:43:17.359Z,71.94
2019-05-22T20:45:46.190Z,71.97
2019-05-22T20:48:19.468Z,72.03
2019-05-22T20:50:48.991Z,72.33
2019-05-22T20:53:19.901Z,72.47
2019-05-22T20:55:49.518Z,72.31
2019-05-22T20:58:19.507Z,72.33
2019-05-22T21:00:49.880Z,72.45
2019-05-22T21:03:21.704Z,72.45
2019-05-22T21:05:51.558Z,72.44
2019-05-22T21:08:22.377Z,72.41
2019-05-22T21:10:52.498Z,72.30
2019-05-22T21:13:21.489Z,72.33
2019-05-22T21:15:51.907Z,72.40
2019-05-22T21:18:23.169Z,72.48
2019-05-22T21:20:55.162Z,72.60
2019-05-22T21:23:25.097Z,72.65
2019-05-22T21:25:53.922Z,72.93
2019-05-22T21:28:23.703Z,72.89
2019-05-22T21:30:54.710Z,72.90
2019-05-22T21:33:24.280Z,72.90
2019-05-22T21:35:54.091Z,72.89
2019-05-22T21:38:27.383Z,72.93
2019-05-22T21:40:56.750Z,72.99
2019-05-22T21:43:25.945Z,73.04
2019-05-22T21:45:54.960Z,73.06
2019-05-22T21:48:24.055Z,73.14
2019-05-22T21:50:52.803Z,73.18
2019-05-22T21:53:21.867Z,73.13
2019-05-22T21:56:03.698Z,73.22
2019-05-22T21:58:21.220Z,73.30
2019-05-22T22:00:56.689Z,73.32
2019-05-22T22:03:34.229Z,73.32
2019-05-22T22:06:04.445Z,73.68
2019-05-22T22:08:33.528Z,74.04
2019-05-22T22:11:03.675Z,74.28
2019-05-22T22:13:33.562Z,73.64
2019-05-22T22:16:03.076Z,73.44
2019-05-22T22:18:32.747Z,73.34
2019-05-22T22:21:01.547Z,73.24
2019-05-22T22:23:30.861Z,73.17
2019-05-22T22:26:00.342Z,73.26
2019-05-22T22:28:29.799Z,73.30
2019-05-22T22:31:00.737Z,73.45
2019-05-22T22:33:32.838Z,73.38
2019-05-22T22:36:03.411Z,73.52
2019-05-22T22:38:33.279Z,73.58
2019-05-22T22:41:02.760Z,73.77
2019-05-22T22:43:33.989Z,73.73
2019-05-22T22:46:09.048Z,73.86
2019-05-22T22:48:40.287Z,73.82
2019-05-22T22:51:12.213Z,73.88
2019-05-22T22:53:42.512Z,73.97
2019-05-22T22:56:11.995Z,73.86
2019-05-22T22:58:41.231Z,73.81
2019-05-22T23:01:13.587Z,73.72
2019-05-22T23:03:45.380Z,73.66
2019-05-22T23:06:16.075Z,73.55
2019-05-22T23:08:45.181Z,73.47
2019-05-22T23:11:15.623Z,73.45
2019-05-22T23:13:45.069Z,73.54
2019-05-22T23:16:14.636Z,73.47
2019-05-22T23:18:47.006Z,73.46
2019-05-22T23:21:16.274Z,73.50
2019-05-22T23:23:44.026Z,73.75
2019-05-22T23:26:13.296Z,73.77
2019-05-22T23:28:42.863Z,73.63
2019-05-22T23:31:12.365Z,73.58
2019-05-22T23:33:41.125Z,73.40
2019-05-22T23:36:12.146Z,73.30
2019-05-22T23:38:42.211Z,73.30
2019-05-22T23:41:12.703Z,73.78
2019-05-22T23:43:44.247Z,73.69
2019-05-22T23:46:13.511Z,74.24
2019-05-22T23:48:43.962Z,74.21
2019-05-22T23:51:12.833Z,73.68
2019-05-22T23:53:42.882Z,73.70
2019-05-22T23:56:11.873Z,73.66
2019-05-22T23:58:52.373Z,73.49
